createdAt,value
2019-02-17T00:00:03.357Z,0
2019-02-17T00:00:43.964Z,0
2019-02-17T00:01:24.571Z,0
2019-02-17T00:02:05.217Z,0
2019-02-17T00:02:46.019Z,0
2019-02-17T00:03:26.635Z,0
2019-02-17T00:04:07.274Z,0
2019-02-17T00:04:47.879Z,0
2019-02-17T00:05:28.495Z,0
2019-02-17T00:06:09.101Z,0
2019-02-17T00:06:49.688Z,0
2019-02-17T00:07:30.286Z,0
2019-02-17T00:08:10.909Z,0
2019-02-17T00:08:51.495Z,0
2019-02-17T00:09:32.095Z,0
2019-02-17T00:10:12.691Z,0
2019-02-17T00:10:53.307Z,0
2019-02-17T00:11:33.909Z,0
2019-02-17T00:12:14.555Z,0
2019-02-17T00:12:55.400Z,0
2019-02-17T00:13:35.990Z,0
2019-02-17T00:14:16.627Z,0
2019-02-17T00:14:57.213Z,0
2019-02-17T00:15:37.837Z,0
2019-02-17T00:16:18.467Z,0
2019-02-17T00:16:59.088Z,0
2019-02-17T00:17:39.703Z,0
2019-02-17T00:18:20.327Z,0
2019-02-17T00:19:00.969Z,0
2019-02-17T00:19:41.607Z,0
2019-02-17T00:20:22.241Z,0
2019-02-17T00:21:02.897Z,0
2019-02-17T00:21:43.651Z,0
2019-02-17T00:22:24.302Z,0
2019-02-17T00:23:04.854Z,0
2019-02-17T00:23:45.452Z,0
2019-02-17T00:24:26.129Z,0
2019-02-17T00:25:07.277Z,0
2019-02-17T00:25:48.387Z,0
2019-02-17T00:26:29.293Z,0
2019-02-17T00:27:11.291Z,0
2019-02-17T00:27:51.867Z,0
2019-02-17T00:28:32.487Z,0
2019-02-17T00:29:13.692Z,0
2019-02-17T00:29:54.293Z,0
2019-02-17T00:30:34.891Z,0
2019-02-17T00:31:15.493Z,0
2019-02-17T00:31:56.319Z,0
2019-02-17T00:32:36.921Z,0
2019-02-17T00:33:17.515Z,0
2019-02-17T00:33:58.153Z,0
2019-02-17T00:34:38.769Z,0
2019-02-17T00:35:19.375Z,0
2019-02-17T00:35:59.983Z,0
2019-02-17T00:36:40.641Z,0
2019-02-17T00:37:21.293Z,0
2019-02-17T00:38:01.997Z,0
2019-02-17T00:38:42.603Z,0
2019-02-17T00:39:23.209Z,0
2019-02-17T00:40:03.803Z,0
2019-02-17T00:40:44.397Z,0
2019-02-17T00:41:24.995Z,0
2019-02-17T00:42:05.605Z,0
2019-02-17T00:42:46.211Z,0
2019-02-17T00:43:26.777Z,0
2019-02-17T00:44:07.361Z,0
2019-02-17T00:44:47.945Z,0
2019-02-17T00:45:28.551Z,0
2019-02-17T00:46:09.167Z,0
2019-02-17T00:46:49.763Z,0
2019-02-17T00:47:30.356Z,0
2019-02-17T00:48:10.957Z,0
2019-02-17T00:48:51.562Z,0
2019-02-17T00:49:32.191Z,0
2019-02-17T00:50:12.777Z,0
2019-02-17T00:50:53.373Z,0
2019-02-17T00:51:33.968Z,0
2019-02-17T00:52:14.553Z,0
2019-02-17T00:52:55.145Z,0
2019-02-17T00:53:35.763Z,0
2019-02-17T00:54:16.360Z,0
2019-02-17T00:54:57.015Z,0
2019-02-17T00:55:37.609Z,0
2019-02-17T00:56:18.231Z,0
2019-02-17T00:56:58.843Z,0
2019-02-17T00:57:39.441Z,0
2019-02-17T00:58:20.041Z,0
2019-02-17T00:59:09.549Z,0
2019-02-17T00:59:41.253Z,0
2019-02-17T01:00:21.859Z,0
2019-02-17T01:01:02.457Z,0
2019-02-17T01:01:43.051Z,0
2019-02-17T01:02:23.711Z,0
2019-02-17T01:03:04.331Z,0
2019-02-17T01:03:44.959Z,0
2019-02-17T01:04:25.550Z,0
2019-02-17T01:05:06.128Z,0
2019-02-17T01:05:46.743Z,0
2019-02-17T01:06:27.347Z,0
2019-02-17T01:07:07.955Z,0
2019-02-17T01:07:48.565Z,0
2019-02-17T01:08:29.170Z,0
2019-02-17T01:09:09.779Z,0
2019-02-17T01:09:50.373Z,0
2019-02-17T01:10:30.983Z,0
2019-02-17T01:11:11.586Z,0
2019-02-17T01:11:52.177Z,0
2019-02-17T01:12:32.783Z,0
2019-02-17T01:13:13.394Z,0
2019-02-17T01:13:53.997Z,0
2019-02-17T01:14:34.598Z,0
2019-02-17T01:15:15.190Z,0
2019-02-17T01:15:55.808Z,0
2019-02-17T01:16:36.402Z,0
2019-02-17T01:17:16.992Z,0
2019-02-17T01:17:57.615Z,0
2019-02-17T01:18:38.201Z,0
2019-02-17T01:19:18.790Z,0
2019-02-17T01:19:59.394Z,0
2019-02-17T01:20:39.996Z,0
2019-02-17T01:21:20.584Z,0
2019-02-17T01:22:01.172Z,0
2019-02-17T01:22:41.756Z,0
2019-02-17T01:23:22.348Z,0
2019-02-17T01:24:02.978Z,0
2019-02-17T01:24:43.566Z,0
2019-02-17T01:25:24.180Z,0
2019-02-17T01:26:04.772Z,0
2019-02-17T01:26:45.362Z,0
2019-02-17T01:27:26.002Z,0
2019-02-17T01:28:06.674Z,0
2019-02-17T01:28:47.219Z,0
2019-02-17T01:29:27.835Z,0
2019-02-17T01:30:08.438Z,0
2019-02-17T01:30:49.030Z,0
2019-02-17T01:31:29.623Z,0
2019-02-17T01:32:10.270Z,0
2019-02-17T01:32:50.877Z,0
2019-02-17T01:33:31.464Z,0
2019-02-17T01:34:12.056Z,0
2019-02-17T01:34:52.646Z,0
2019-02-17T01:35:33.281Z,0
2019-02-17T01:36:13.889Z,0
2019-02-17T01:36:54.476Z,0
2019-02-17T01:37:35.060Z,0
2019-02-17T01:38:15.639Z,0
2019-02-17T01:38:56.300Z,0
2019-02-17T01:39:36.970Z,0
2019-02-17T01:40:17.558Z,0
2019-02-17T01:40:58.158Z,0
2019-02-17T01:41:38.747Z,0
2019-02-17T01:42:19.345Z,0
2019-02-17T01:42:59.921Z,0
2019-02-17T01:43:40.533Z,0
2019-02-17T01:44:21.125Z,0
2019-02-17T01:45:01.722Z,0
2019-02-17T01:45:42.322Z,0
2019-02-17T01:46:22.909Z,0
2019-02-17T01:47:03.501Z,0
2019-02-17T01:47:44.103Z,0
2019-02-17T01:48:24.731Z,0
2019-02-17T01:49:05.344Z,0
2019-02-17T01:49:45.938Z,0
2019-02-17T01:50:26.551Z,0
2019-02-17T01:51:07.188Z,0
2019-02-17T01:51:47.788Z,0
2019-02-17T01:52:28.385Z,0
2019-02-17T01:53:08.982Z,0
2019-02-17T01:53:49.595Z,0
2019-02-17T01:54:30.193Z,0
2019-02-17T01:55:10.788Z,0
2019-02-17T01:55:51.386Z,0
2019-02-17T01:56:31.993Z,0
2019-02-17T01:57:12.567Z,0
2019-02-17T01:57:53.159Z,0
2019-02-17T01:58:33.755Z,0
2019-02-17T01:59:14.347Z,0
2019-02-17T01:59:54.958Z,0
2019-02-17T02:00:35.545Z,0
2019-02-17T02:01:17.136Z,0
2019-02-17T02:01:56.747Z,0
2019-02-17T02:02:37.359Z,0
2019-02-17T02:03:17.965Z,0
2019-02-17T02:03:58.582Z,0
2019-02-17T02:04:39.171Z,0
2019-02-17T02:05:19.770Z,0
2019-02-17T02:06:00.361Z,0
2019-02-17T02:06:40.971Z,0
2019-02-17T02:07:21.573Z,0
2019-02-17T02:08:02.158Z,0
2019-02-17T02:08:42.753Z,0
2019-02-17T02:09:23.343Z,0
2019-02-17T02:10:03.926Z,0
2019-02-17T02:10:44.518Z,0
2019-02-17T02:11:25.105Z,0
2019-02-17T02:12:05.698Z,0
2019-02-17T02:12:46.298Z,0
2019-02-17T02:13:26.904Z,0
2019-02-17T02:14:07.501Z,0
2019-02-17T02:14:48.102Z,0
2019-02-17T02:15:28.698Z,0
2019-02-17T02:16:09.292Z,0
2019-02-17T02:16:49.880Z,0
2019-02-17T02:17:30.486Z,0
2019-02-17T02:18:11.104Z,0
2019-02-17T02:18:51.726Z,0
2019-02-17T02:19:32.330Z,0
2019-02-17T02:20:12.923Z,0
2019-02-17T02:20:53.520Z,0
2019-02-17T02:21:34.140Z,0
2019-02-17T02:22:14.728Z,0
2019-02-17T02:22:55.330Z,0
2019-02-17T02:23:35.940Z,0
2019-02-17T02:24:16.554Z,0
2019-02-17T02:24:57.144Z,0
2019-02-17T02:25:37.730Z,0
2019-02-17T02:26:18.333Z,0
2019-02-17T02:26:58.940Z,0
2019-02-17T02:27:39.542Z,0
2019-02-17T02:28:20.152Z,0
2019-02-17T02:29:00.748Z,0
2019-02-17T02:29:41.566Z,0
2019-02-17T02:30:21.946Z,0
2019-02-17T02:31:02.546Z,0
2019-02-17T02:31:43.174Z,0
2019-02-17T02:32:23.767Z,0
2019-02-17T02:33:04.360Z,0
2019-02-17T02:33:44.982Z,0
2019-02-17T02:34:25.557Z,0
2019-02-17T02:35:06.155Z,0
2019-02-17T02:35:46.761Z,0
2019-02-17T02:36:27.356Z,0
2019-02-17T02:37:07.955Z,0
2019-02-17T02:37:48.563Z,0
2019-02-17T02:38:29.195Z,0
2019-02-17T02:39:09.807Z,0
2019-02-17T02:39:50.391Z,0
2019-02-17T02:40:30.983Z,0
2019-02-17T02:41:11.607Z,0
2019-02-17T02:41:52.196Z,0
2019-02-17T02:42:32.786Z,0
2019-02-17T02:43:13.381Z,0
2019-02-17T02:43:54.019Z,0
2019-02-17T02:44:34.605Z,0
2019-02-17T02:45:15.193Z,0
2019-02-17T02:45:55.783Z,0
2019-02-17T02:46:36.369Z,0
2019-02-17T02:47:16.967Z,0
2019-02-17T02:47:57.581Z,0
2019-02-17T02:48:38.205Z,0
2019-02-17T02:49:18.799Z,0
2019-02-17T02:49:59.409Z,0
2019-02-17T02:50:40.007Z,0
2019-02-17T02:51:20.603Z,0
2019-02-17T02:52:01.191Z,0
2019-02-17T02:52:41.790Z,0
2019-02-17T02:53:22.394Z,0
2019-02-17T02:54:02.985Z,0
2019-02-17T02:54:43.592Z,0
2019-02-17T02:55:24.183Z,0
2019-02-17T02:56:04.773Z,0
2019-02-17T02:56:45.386Z,0
2019-02-17T02:57:25.971Z,0
2019-02-17T02:58:06.575Z,0
2019-02-17T02:58:47.171Z,0
2019-02-17T02:59:27.761Z,0
2019-02-17T03:00:08.369Z,0
2019-02-17T03:00:48.957Z,0
2019-02-17T03:01:29.547Z,0
2019-02-17T03:02:10.127Z,0
2019-02-17T03:02:50.727Z,0
2019-02-17T03:03:31.323Z,0
2019-02-17T03:04:11.913Z,0
2019-02-17T03:04:52.505Z,0
2019-02-17T03:05:33.108Z,0
2019-02-17T03:06:13.698Z,0
2019-02-17T03:06:54.284Z,0
2019-02-17T03:07:34.871Z,0
2019-02-17T03:08:15.482Z,0
2019-02-17T03:08:56.073Z,0
2019-02-17T03:09:36.657Z,0
2019-02-17T03:10:17.251Z,0
2019-02-17T03:10:57.857Z,0
2019-02-17T03:11:38.452Z,0
2019-02-17T03:12:19.042Z,0
2019-02-17T03:12:59.637Z,0
2019-02-17T03:13:40.219Z,0
2019-02-17T03:14:20.827Z,0
2019-02-17T03:15:01.423Z,0
2019-02-17T03:15:42.042Z,0
2019-02-17T03:16:22.631Z,0
2019-02-17T03:17:03.296Z,0
2019-02-17T03:17:43.859Z,0
2019-02-17T03:18:24.439Z,0
2019-02-17T03:19:05.056Z,0
2019-02-17T03:19:45.621Z,0
2019-02-17T03:20:26.216Z,0
2019-02-17T03:21:06.802Z,0
2019-02-17T03:21:47.401Z,0
2019-02-17T03:22:27.990Z,0
2019-02-17T03:23:08.585Z,0
2019-02-17T03:23:49.182Z,0
2019-02-17T03:24:29.785Z,0
2019-02-17T03:25:10.391Z,0
2019-02-17T03:25:50.979Z,0
2019-02-17T03:26:31.606Z,0
2019-02-17T03:27:12.224Z,0
2019-02-17T03:27:52.866Z,0
2019-02-17T03:28:33.403Z,0
2019-02-17T03:29:14.000Z,0
2019-02-17T03:30:04.319Z,0
2019-02-17T03:30:35.180Z,0
2019-02-17T03:31:15.767Z,0
2019-02-17T03:31:56.389Z,0
2019-02-17T03:32:36.979Z,0
2019-02-17T03:33:17.563Z,0
2019-02-17T03:33:58.169Z,0
2019-02-17T03:34:38.768Z,0
2019-02-17T03:35:19.367Z,0
2019-02-17T03:35:59.953Z,0
2019-02-17T03:36:40.545Z,0
2019-02-17T03:37:21.135Z,0
2019-02-17T03:38:01.726Z,0
2019-02-17T03:38:42.327Z,0
2019-02-17T03:39:22.923Z,0
2019-02-17T03:40:03.527Z,0
2019-02-17T03:40:44.126Z,0
2019-02-17T03:41:24.756Z,0
2019-02-17T03:42:05.338Z,0
2019-02-17T03:42:46.041Z,0
2019-02-17T03:43:41.450Z,0
2019-02-17T03:44:22.045Z,0
2019-02-17T03:45:02.645Z,0
2019-02-17T03:45:43.234Z,0
2019-02-17T03:46:23.832Z,0
2019-02-17T03:47:04.418Z,0
2019-02-17T03:47:45.009Z,0
2019-02-17T03:48:25.660Z,0
2019-02-17T03:49:06.259Z,0
2019-02-17T03:49:46.854Z,0
2019-02-17T03:50:27.459Z,0
2019-02-17T03:51:08.069Z,0
2019-02-17T03:51:48.683Z,0
2019-02-17T03:52:29.275Z,0
2019-02-17T03:53:09.863Z,0
2019-02-17T03:53:50.452Z,0
2019-02-17T03:54:31.034Z,0
2019-02-17T03:55:11.629Z,0
2019-02-17T03:55:52.216Z,0
2019-02-17T03:56:32.825Z,0
2019-02-17T03:57:13.447Z,0
2019-02-17T03:57:54.036Z,0
2019-02-17T03:58:34.624Z,0
2019-02-17T03:59:15.237Z,0
2019-02-17T03:59:55.842Z,0
2019-02-17T04:00:36.446Z,0
2019-02-17T04:01:17.039Z,0
2019-02-17T04:01:57.629Z,0
2019-02-17T04:02:38.227Z,0
2019-02-17T04:03:18.836Z,0
2019-02-17T04:03:59.455Z,0
2019-02-17T04:04:40.054Z,0
2019-02-17T04:05:20.657Z,0
2019-02-17T04:06:01.259Z,0
2019-02-17T04:06:41.873Z,0
2019-02-17T04:07:22.467Z,0
2019-02-17T04:08:03.056Z,0
2019-02-17T04:08:43.649Z,0
2019-02-17T04:09:24.255Z,0
2019-02-17T04:10:05.297Z,0
2019-02-17T04:10:45.892Z,0
2019-02-17T04:11:26.483Z,0
2019-02-17T04:12:07.080Z,0
2019-02-17T04:12:47.674Z,0
2019-02-17T04:13:28.299Z,0
2019-02-17T04:14:08.875Z,0
2019-02-17T04:14:49.487Z,0
2019-02-17T04:15:30.087Z,0
2019-02-17T04:16:10.723Z,0
2019-02-17T04:16:51.326Z,0
2019-02-17T04:17:31.938Z,0
2019-02-17T04:18:12.544Z,0
2019-02-17T04:18:53.142Z,0
2019-02-17T04:19:33.738Z,0
2019-02-17T04:20:14.330Z,0
2019-02-17T04:20:54.920Z,0
2019-02-17T04:21:35.506Z,0
2019-02-17T04:22:16.091Z,0
2019-02-17T04:22:56.710Z,0
2019-02-17T04:23:37.310Z,0
2019-02-17T04:24:17.880Z,0
2019-02-17T04:24:58.462Z,0
2019-02-17T04:25:39.045Z,0
2019-02-17T04:26:19.676Z,0
2019-02-17T04:27:00.273Z,0
2019-02-17T04:27:40.868Z,0
2019-02-17T04:28:21.468Z,0
2019-02-17T04:29:02.072Z,0
2019-02-17T04:29:42.666Z,0
2019-02-17T04:30:29.106Z,0
2019-02-17T04:31:03.896Z,0
2019-02-17T04:31:44.498Z,0
2019-02-17T04:32:25.092Z,0
2019-02-17T04:33:05.758Z,0
2019-02-17T04:33:46.339Z,0
2019-02-17T04:34:26.976Z,0
2019-02-17T04:35:07.587Z,0
2019-02-17T04:35:48.186Z,0
2019-02-17T04:36:28.797Z,0
2019-02-17T04:37:09.381Z,0
2019-02-17T04:37:49.971Z,0
2019-02-17T04:38:30.592Z,0
2019-02-17T04:39:11.199Z,0
2019-02-17T04:39:51.786Z,0
2019-02-17T04:40:32.377Z,0
2019-02-17T04:41:12.993Z,0
2019-02-17T04:41:53.587Z,0
2019-02-17T04:42:34.172Z,0
2019-02-17T04:43:14.758Z,0
2019-02-17T04:43:55.342Z,0
2019-02-17T04:44:35.990Z,0
2019-02-17T04:45:16.602Z,0
2019-02-17T04:45:57.223Z,0
2019-02-17T04:46:37.850Z,0
2019-02-17T04:47:18.468Z,0
2019-02-17T04:47:59.075Z,0
2019-02-17T04:48:39.710Z,0
2019-02-17T04:49:20.298Z,0
2019-02-17T04:50:00.895Z,0
2019-02-17T04:50:41.503Z,0
2019-02-17T04:51:22.098Z,0
2019-02-17T04:52:02.705Z,0
2019-02-17T04:52:43.292Z,0
2019-02-17T04:53:23.891Z,0
2019-02-17T04:54:04.483Z,0
2019-02-17T04:54:45.132Z,0
2019-02-17T04:55:25.711Z,0
2019-02-17T04:56:06.290Z,0
2019-02-17T04:56:46.886Z,0
2019-02-17T04:57:27.487Z,0
2019-02-17T04:58:08.098Z,0
2019-02-17T04:58:48.700Z,0
2019-02-17T04:59:29.308Z,0
2019-02-17T05:00:09.909Z,0
2019-02-17T05:00:50.507Z,0
2019-02-17T05:01:31.102Z,0
2019-02-17T05:02:11.701Z,0
2019-02-17T05:02:52.311Z,0
2019-02-17T05:03:32.915Z,0
2019-02-17T05:04:13.506Z,0
2019-02-17T05:04:54.097Z,0
2019-02-17T05:05:34.676Z,0
2019-02-17T05:06:15.312Z,0
2019-02-17T05:06:55.883Z,0
2019-02-17T05:07:36.477Z,0
2019-02-17T05:08:17.072Z,0
2019-02-17T05:08:57.686Z,0
2019-02-17T05:09:38.291Z,0
2019-02-17T05:10:18.923Z,0
2019-02-17T05:10:59.543Z,0
2019-02-17T05:11:40.185Z,0
2019-02-17T05:12:20.761Z,0
2019-02-17T05:13:01.454Z,0
2019-02-17T05:13:42.049Z,0
2019-02-17T05:14:22.660Z,0
2019-02-17T05:15:03.249Z,0
2019-02-17T05:15:43.874Z,0
2019-02-17T05:16:24.477Z,0
2019-02-17T05:17:05.059Z,0
2019-02-17T05:17:45.657Z,0
2019-02-17T05:18:26.297Z,0
2019-02-17T05:19:06.907Z,0
2019-02-17T05:19:47.517Z,0
2019-02-17T05:20:28.121Z,0
2019-02-17T05:21:08.714Z,0
2019-02-17T05:21:49.301Z,0
2019-02-17T05:22:29.904Z,0
2019-02-17T05:23:10.498Z,0
2019-02-17T05:23:51.087Z,0
2019-02-17T05:24:31.705Z,0
2019-02-17T05:25:12.298Z,0
2019-02-17T05:25:52.881Z,0
2019-02-17T05:26:33.475Z,0
2019-02-17T05:27:14.075Z,0
2019-02-17T05:27:54.662Z,0
2019-02-17T05:28:35.269Z,0
2019-02-17T05:29:15.872Z,0
2019-02-17T05:29:56.482Z,0
2019-02-17T05:30:37.059Z,0
2019-02-17T05:31:17.649Z,0
2019-02-17T05:31:58.255Z,0
2019-02-17T05:32:38.855Z,0
2019-02-17T05:33:19.443Z,0
2019-02-17T05:34:00.056Z,0
2019-02-17T05:34:40.665Z,0
2019-02-17T05:35:21.294Z,0
2019-02-17T05:36:01.878Z,0
2019-02-17T05:36:42.539Z,0
2019-02-17T05:37:23.148Z,0
2019-02-17T05:38:03.760Z,0
2019-02-17T05:38:44.375Z,0
2019-02-17T05:39:24.975Z,0
2019-02-17T05:40:05.614Z,0
2019-02-17T05:40:46.192Z,0
2019-02-17T05:41:26.778Z,0
2019-02-17T05:42:07.369Z,0
2019-02-17T05:42:47.997Z,0
2019-02-17T05:43:28.587Z,0
2019-02-17T05:44:09.187Z,0
2019-02-17T05:44:49.804Z,0
2019-02-17T05:45:30.428Z,0
2019-02-17T05:46:11.055Z,0
2019-02-17T05:46:51.653Z,0
2019-02-17T05:47:32.260Z,0
2019-02-17T05:48:12.882Z,0
2019-02-17T05:48:53.467Z,0
2019-02-17T05:49:34.096Z,0
2019-02-17T05:50:14.693Z,0
2019-02-17T05:50:55.295Z,0
2019-02-17T05:51:35.879Z,0
2019-02-17T05:52:16.469Z,0
2019-02-17T05:52:57.057Z,0
2019-02-17T05:53:37.649Z,0
2019-02-17T05:54:18.267Z,0
2019-02-17T05:54:58.868Z,0
2019-02-17T05:55:39.512Z,0
2019-02-17T05:56:20.115Z,0
2019-02-17T05:57:00.713Z,0
2019-02-17T05:57:41.306Z,0
2019-02-17T05:58:21.922Z,0
2019-02-17T05:59:02.576Z,0
2019-02-17T05:59:43.165Z,0
2019-02-17T06:00:23.835Z,0
2019-02-17T06:01:06.721Z,0
2019-02-17T06:01:45.017Z,0
2019-02-17T06:02:25.616Z,0
2019-02-17T06:03:06.197Z,0
2019-02-17T06:03:46.800Z,0
2019-02-17T06:04:27.386Z,0
2019-02-17T06:05:07.988Z,0
2019-02-17T06:05:48.620Z,0
2019-02-17T06:06:29.248Z,0
2019-02-17T06:07:09.841Z,0
2019-02-17T06:07:50.437Z,0
2019-02-17T06:08:31.071Z,0
2019-02-17T06:09:11.662Z,0
2019-02-17T06:09:52.278Z,0
2019-02-17T06:10:32.863Z,0
2019-02-17T06:11:13.491Z,0
2019-02-17T06:11:54.767Z,0
2019-02-17T06:12:35.370Z,0
2019-02-17T06:13:15.956Z,0
2019-02-17T06:13:56.533Z,0
2019-02-17T06:14:37.146Z,0
2019-02-17T06:15:17.740Z,0
2019-02-17T06:15:58.340Z,0
2019-02-17T06:16:38.940Z,0
2019-02-17T06:17:19.545Z,0
2019-02-17T06:18:00.139Z,0
2019-02-17T06:18:40.850Z,0
2019-02-17T06:19:21.445Z,0
2019-02-17T06:20:02.061Z,0
2019-02-17T06:20:42.650Z,0
2019-02-17T06:21:23.294Z,0
2019-02-17T06:22:03.857Z,0
2019-02-17T06:22:44.468Z,0
2019-02-17T06:23:25.114Z,0
2019-02-17T06:24:05.726Z,0
2019-02-17T06:24:46.314Z,0
2019-02-17T06:25:26.909Z,0
2019-02-17T06:26:07.523Z,0
2019-02-17T06:26:48.140Z,0
2019-02-17T06:27:28.739Z,4
2019-02-17T06:28:09.323Z,0
2019-02-17T06:28:49.934Z,0
2019-02-17T06:29:30.554Z,0
2019-02-17T06:30:11.190Z,4
2019-02-17T06:30:51.792Z,0
2019-02-17T06:31:32.382Z,0
2019-02-17T06:32:12.998Z,4
2019-02-17T06:32:53.592Z,0
2019-02-17T06:33:34.198Z,4
2019-02-17T06:34:14.791Z,4
2019-02-17T06:34:55.408Z,4
2019-02-17T06:35:36.010Z,4
2019-02-17T06:36:16.609Z,4
2019-02-17T06:36:57.214Z,8
2019-02-17T06:37:37.822Z,4
2019-02-17T06:38:18.410Z,8
2019-02-17T06:38:59.050Z,8
2019-02-17T06:39:39.638Z,12
2019-02-17T06:40:20.223Z,8
2019-02-17T06:41:00.814Z,8
2019-02-17T06:41:41.417Z,12
2019-02-17T06:42:22.014Z,12
2019-02-17T06:43:02.613Z,12
2019-02-17T06:43:43.216Z,16
2019-02-17T06:44:23.810Z,20
2019-02-17T06:45:04.400Z,20
2019-02-17T06:45:45.010Z,20
2019-02-17T06:46:25.610Z,24
2019-02-17T06:47:06.200Z,24
2019-02-17T06:47:46.784Z,28
2019-02-17T06:48:27.376Z,28
2019-02-17T06:49:07.962Z,32
2019-02-17T06:49:48.604Z,36
2019-02-17T06:50:29.196Z,36
2019-02-17T06:51:09.816Z,36
2019-02-17T06:51:50.400Z,40
2019-02-17T06:52:31.015Z,44
2019-02-17T06:53:11.604Z,48
2019-02-17T06:53:52.220Z,48
2019-02-17T06:54:32.802Z,52
2019-02-17T06:55:13.409Z,52
2019-02-17T06:55:54.022Z,56
2019-02-17T06:56:35.212Z,60
2019-02-17T06:57:15.815Z,64
2019-02-17T06:57:56.438Z,64
2019-02-17T06:58:37.094Z,72
2019-02-17T06:59:17.690Z,76
2019-02-17T06:59:58.305Z,80
2019-02-17T07:00:38.958Z,80
2019-02-17T07:01:24.523Z,84
2019-02-17T07:02:00.403Z,88
2019-02-17T07:02:41.020Z,96
2019-02-17T07:03:21.635Z,100
2019-02-17T07:04:02.237Z,108
2019-02-17T07:04:42.892Z,112
2019-02-17T07:05:23.461Z,112
2019-02-17T07:06:04.044Z,120
2019-02-17T07:06:44.665Z,128
2019-02-17T07:07:25.271Z,128
2019-02-17T07:08:05.862Z,136
2019-02-17T07:08:46.776Z,144
2019-02-17T07:09:27.414Z,148
2019-02-17T07:10:07.998Z,160
2019-02-17T07:10:48.594Z,160
2019-02-17T07:11:29.183Z,168
2019-02-17T07:12:09.769Z,172
2019-02-17T07:12:50.360Z,180
2019-02-17T07:13:30.944Z,184
2019-02-17T07:14:11.563Z,196
2019-02-17T07:14:52.458Z,204
2019-02-17T07:15:33.045Z,212
2019-02-17T07:16:13.645Z,220
2019-02-17T07:16:54.250Z,228
2019-02-17T07:17:34.859Z,236
2019-02-17T07:18:15.453Z,240
2019-02-17T07:18:56.061Z,248
2019-02-17T07:19:36.666Z,256
2019-02-17T07:20:17.261Z,264
2019-02-17T07:20:57.868Z,268
2019-02-17T07:21:38.460Z,280
2019-02-17T07:22:19.065Z,288
2019-02-17T07:22:59.676Z,292
2019-02-17T07:23:40.268Z,296
2019-02-17T07:24:20.886Z,308
2019-02-17T07:25:01.461Z,316
2019-02-17T07:25:42.065Z,324
2019-02-17T07:26:22.672Z,332
2019-02-17T07:27:03.259Z,332
2019-02-17T07:27:43.839Z,336
2019-02-17T07:28:24.433Z,332
2019-02-17T07:29:05.026Z,328
2019-02-17T07:29:45.613Z,328
2019-02-17T07:30:26.201Z,328
2019-02-17T07:31:06.803Z,332
2019-02-17T07:31:47.393Z,344
2019-02-17T07:32:27.983Z,360
2019-02-17T07:33:08.637Z,376
2019-02-17T07:33:49.181Z,392
2019-02-17T07:34:29.765Z,404
2019-02-17T07:35:10.349Z,416
2019-02-17T07:35:50.943Z,424
2019-02-17T07:36:31.553Z,428
2019-02-17T07:37:12.147Z,424
2019-02-17T07:37:52.810Z,424
2019-02-17T07:38:33.348Z,420
2019-02-17T07:39:13.980Z,424
2019-02-17T07:39:54.569Z,428
2019-02-17T07:40:35.171Z,428
2019-02-17T07:41:15.770Z,424
2019-02-17T07:41:56.389Z,420
2019-02-17T07:42:36.997Z,412
2019-02-17T07:43:17.625Z,412
2019-02-17T07:43:58.261Z,408
2019-02-17T07:44:40.446Z,408
2019-02-17T07:45:19.470Z,408
2019-02-17T07:46:00.075Z,408
2019-02-17T07:46:40.669Z,408
2019-02-17T07:47:21.288Z,412
2019-02-17T07:48:01.917Z,416
2019-02-17T07:48:42.541Z,420
2019-02-17T07:49:23.170Z,424
2019-02-17T07:50:03.773Z,436
2019-02-17T07:50:44.417Z,448
2019-02-17T07:51:25.001Z,460
2019-02-17T07:52:05.585Z,472
2019-02-17T07:52:46.213Z,480
2019-02-17T07:53:26.805Z,488
2019-02-17T07:54:07.402Z,488
2019-02-17T07:54:48.002Z,492
2019-02-17T07:55:28.610Z,500
2019-02-17T07:56:09.229Z,504
2019-02-17T07:56:49.861Z,512
2019-02-17T07:57:30.465Z,520
2019-02-17T07:58:11.055Z,524
2019-02-17T07:58:51.655Z,528
2019-02-17T07:59:32.255Z,524
2019-02-17T08:00:12.857Z,512
2019-02-17T08:00:53.461Z,504
2019-02-17T08:01:34.057Z,496
2019-02-17T08:02:14.676Z,488
2019-02-17T08:02:55.295Z,488
2019-02-17T08:03:35.899Z,492
2019-02-17T08:04:16.495Z,492
2019-02-17T08:04:57.088Z,496
2019-02-17T08:05:37.695Z,500
2019-02-17T08:06:18.374Z,504
2019-02-17T08:06:58.897Z,508
2019-02-17T08:07:39.494Z,512
2019-02-17T08:08:20.081Z,516
2019-02-17T08:09:00.671Z,524
2019-02-17T08:09:41.311Z,528
2019-02-17T08:10:21.899Z,536
2019-02-17T08:11:04.145Z,540
2019-02-17T08:11:43.093Z,544
2019-02-17T08:12:23.691Z,548
2019-02-17T08:13:04.271Z,552
2019-02-17T08:13:44.877Z,548
2019-02-17T08:14:25.505Z,548
2019-02-17T08:15:07.285Z,544
2019-02-17T08:15:46.995Z,548
2019-02-17T08:16:27.695Z,552
2019-02-17T08:17:08.265Z,556
2019-02-17T08:17:49.031Z,556
2019-02-17T08:18:29.615Z,556
2019-02-17T08:19:10.217Z,556
2019-02-17T08:19:50.809Z,556
2019-02-17T08:20:31.397Z,560
2019-02-17T08:21:11.989Z,560
2019-02-17T08:21:52.586Z,556
2019-02-17T08:22:33.235Z,552
2019-02-17T08:23:13.927Z,548
2019-02-17T08:23:54.451Z,548
2019-02-17T08:24:35.133Z,548
2019-02-17T08:25:21.667Z,552
2019-02-17T08:25:56.241Z,556
2019-02-17T08:26:36.837Z,560
2019-02-17T08:27:17.585Z,560
2019-02-17T08:27:58.218Z,556
2019-02-17T08:28:38.855Z,560
2019-02-17T08:29:19.493Z,564
2019-02-17T08:30:00.897Z,572
2019-02-17T08:30:41.239Z,572
2019-02-17T08:31:21.825Z,568
2019-02-17T08:32:02.409Z,572
2019-02-17T08:32:44.103Z,572
2019-02-17T08:35:13.665Z,572
2019-02-17T08:35:54.251Z,568
2019-02-17T08:36:34.856Z,568
2019-02-17T08:37:15.477Z,568
2019-02-17T08:37:56.059Z,568
2019-02-17T08:38:36.665Z,568
2019-02-17T08:39:17.293Z,568
2019-02-17T08:39:57.893Z,564
2019-02-17T08:40:38.519Z,568
2019-02-17T08:41:19.093Z,568
2019-02-17T08:41:59.689Z,568
2019-02-17T08:42:40.269Z,568
2019-02-17T08:43:20.863Z,568
2019-02-17T08:44:01.666Z,568
2019-02-17T08:44:42.725Z,568
2019-02-17T08:45:24.260Z,564
2019-02-17T08:46:04.830Z,564
2019-02-17T08:46:45.420Z,564
2019-02-17T08:47:26.003Z,568
2019-02-17T08:48:07.167Z,564
2019-02-17T08:48:47.977Z,560
2019-02-17T08:49:29.044Z,556
2019-02-17T08:50:09.660Z,552
2019-02-17T08:50:50.239Z,548
2019-02-17T08:51:30.993Z,548
2019-02-17T08:52:11.604Z,548
2019-02-17T08:52:52.182Z,548
2019-02-17T08:53:32.788Z,548
2019-02-17T08:54:13.507Z,548
2019-02-17T08:54:54.103Z,548
2019-02-17T08:55:34.688Z,548
2019-02-17T08:56:15.284Z,552
2019-02-17T08:56:55.880Z,548
2019-02-17T08:57:38.023Z,552
2019-02-17T08:58:17.063Z,552
2019-02-17T08:58:57.652Z,556
2019-02-17T08:59:38.323Z,560
2019-02-17T09:00:18.899Z,560
2019-02-17T09:00:59.495Z,568
2019-02-17T09:01:40.525Z,568
2019-02-17T09:02:20.688Z,568
2019-02-17T09:03:01.289Z,568
2019-02-17T09:03:41.871Z,568
2019-02-17T09:04:22.467Z,568
2019-02-17T09:05:03.063Z,572
2019-02-17T09:05:44.481Z,572
2019-02-17T09:06:24.222Z,572
2019-02-17T09:07:06.391Z,572
2019-02-17T09:07:45.411Z,572
2019-02-17T09:08:26.007Z,576
2019-02-17T09:09:06.626Z,576
2019-02-17T09:09:47.203Z,580
2019-02-17T09:10:27.799Z,580
2019-02-17T09:11:08.635Z,576
2019-02-17T09:11:49.144Z,580
2019-02-17T09:12:29.744Z,580
2019-02-17T09:13:10.346Z,580
2019-02-17T09:13:50.929Z,584
2019-02-17T09:14:31.523Z,584
2019-02-17T09:15:12.107Z,584
2019-02-17T09:15:52.705Z,588
2019-02-17T09:16:33.309Z,588
2019-02-17T09:17:13.903Z,588
2019-02-17T09:17:54.505Z,592
2019-02-17T09:18:35.123Z,596
2019-02-17T09:19:15.715Z,600
2019-02-17T09:19:56.319Z,600
2019-02-17T09:20:36.923Z,604
2019-02-17T09:21:17.558Z,604
2019-02-17T09:21:58.179Z,604
2019-02-17T09:22:38.811Z,608
2019-02-17T09:23:19.423Z,612
2019-02-17T09:24:00.017Z,612
2019-02-17T09:24:41.072Z,612
2019-02-17T09:25:21.664Z,616
2019-02-17T09:26:02.324Z,620
2019-02-17T09:26:42.919Z,620
2019-02-17T09:27:23.519Z,624
2019-02-17T09:28:04.145Z,628
2019-02-17T09:28:44.745Z,628
2019-02-17T09:29:25.329Z,632
2019-02-17T09:30:06.225Z,624
2019-02-17T09:30:46.832Z,628
2019-02-17T09:31:27.563Z,644
2019-02-17T09:32:15.905Z,648
2019-02-17T09:32:48.770Z,648
2019-02-17T09:33:29.359Z,644
2019-02-17T09:34:09.953Z,644
2019-02-17T09:34:50.605Z,644
2019-02-17T09:35:31.155Z,644
2019-02-17T09:36:11.743Z,652
2019-02-17T09:36:52.335Z,664
2019-02-17T09:37:33.065Z,668
2019-02-17T09:38:14.009Z,664
2019-02-17T09:38:54.614Z,672
2019-02-17T09:39:35.209Z,676
2019-02-17T09:40:15.815Z,676
2019-02-17T09:40:56.420Z,680
2019-02-17T09:41:37.049Z,680
2019-02-17T09:42:17.653Z,684
2019-02-17T09:42:58.281Z,684
2019-02-17T09:43:38.869Z,688
2019-02-17T09:44:19.454Z,692
2019-02-17T09:45:00.093Z,696
2019-02-17T09:45:40.645Z,696
2019-02-17T09:46:21.245Z,700
2019-02-17T09:47:01.849Z,704
2019-02-17T09:47:42.440Z,704
2019-02-17T09:48:23.623Z,704
2019-02-17T09:49:04.541Z,708
2019-02-17T09:51:04.850Z,716